Cape Lisburne LRRS Airport Cape Lisburne US
ICAO: PALU
IATA:
Category: Medium
Scheduled Services:

Elevation: 16 ft
TransAlt. 18000 ft.

Airport Communications:
ANCHORAGE CNTR:119.65
KOTZEBUE RDO:122.3
CTAF/UNICOM:126.2

PALU Zoom In..

If Map Doesn't Load, Click Here

Runways:

(A) RW 08 length 4805 ft width 135 ft
---- / hdg 84

(B) RW 26 length 4805 ft width 135 ft
---- / hdg 264

Location; PALU
Day. 21 / Time. 13.15 Zulu
* Altimeter: 29.98
* Temperature: 06° c. 42.8°f.
* Wind from: 130° Speed 08 kn.
Dewpoint: 05° c.
Visibility: 10 Statute Miles.
Clouds: Broken 1100 ft.

PALU 211315Z AUTO 13008KT 10SM BKN011 06/05 A2998 RMK AO2 SLP152


Wind From 130°
Speed 08 kn.

 
 
jpsmedia.com for Web Design worldairports.se 2018   terms of use